createdAt,value
2022-11-19T00:00:58.813Z,4.67
2022-11-19T00:05:58.834Z,4.69
2022-11-19T00:10:58.810Z,4.72
2022-11-19T00:15:58.808Z,4.74
2022-11-19T00:20:58.793Z,4.82
2022-11-19T00:25:58.794Z,4.9
2022-11-19T00:30:58.796Z,4.97
2022-11-19T00:35:58.792Z,5.02
2022-11-19T00:40:58.780Z,5.1
2022-11-19T00:45:58.786Z,5.13
2022-11-19T00:50:58.791Z,5.19
2022-11-19T00:55:58.775Z,5.27
2022-11-19T01:00:58.840Z,5.3
2022-11-19T01:05:58.804Z,5.31
2022-11-19T01:10:58.761Z,5.31
2022-11-19T01:15:58.758Z,5.32
2022-11-19T01:20:58.776Z,5.31
2022-11-19T01:25:58.758Z,5.31
2022-11-19T01:30:58.751Z,5.29
2022-11-19T01:35:58.759Z,5.3
2022-11-19T01:40:58.767Z,5.19
2022-11-19T01:45:58.743Z,4.99
2022-11-19T01:50:58.725Z,4.8
2022-11-19T01:55:58.734Z,4.81
2022-11-19T02:00:58.818Z,4.89
2022-11-19T02:05:58.759Z,4.98
2022-11-19T02:10:58.724Z,5.03
2022-11-19T02:15:58.733Z,5.09
2022-11-19T02:20:58.713Z,5.12
2022-11-19T02:25:58.714Z,5.17
2022-11-19T02:30:58.730Z,5.23
2022-11-19T02:35:58.716Z,5.3
2022-11-19T03:00:58.718Z,5.38
2022-11-19T03:15:58.671Z,5.38
2022-11-19T03:20:58.678Z,5.4
2022-11-19T03:35:58.665Z,5.29
2022-11-19T03:40:58.657Z,5.25
2022-11-19T03:55:58.645Z,5.12
2022-11-19T04:05:58.657Z,4.99
2022-11-19T04:15:58.667Z,4.97
2022-11-19T04:20:58.636Z,4.97
2022-11-19T04:25:58.620Z,4.97
2022-11-19T04:30:58.636Z,4.98
2022-11-19T04:35:58.623Z,4.98
2022-11-19T04:40:58.620Z,5
2022-11-19T04:45:58.621Z,4.96
2022-11-19T04:50:58.614Z,4.85
2022-11-19T04:55:58.602Z,4.78
2022-11-19T05:00:58.617Z,4.76
2022-11-19T05:05:58.601Z,4.75
2022-11-19T05:10:58.605Z,4.75
2022-11-19T05:15:58.615Z,4.71
2022-11-19T05:20:58.593Z,4.64
2022-11-19T05:25:58.602Z,4.5
2022-11-19T05:30:58.600Z,4.42
2022-11-19T05:35:58.591Z,4.42
2022-11-19T05:40:58.588Z,4.45
2022-11-19T05:45:58.597Z,4.46
2022-11-19T05:55:58.571Z,4.56
2022-11-19T06:00:58.574Z,4.59
2022-11-19T06:05:58.567Z,4.64
2022-11-19T06:10:58.552Z,4.67
2022-11-19T06:15:58.594Z,4.68
2022-11-19T06:20:58.554Z,4.69
2022-11-19T06:25:58.571Z,4.67
2022-11-19T06:30:58.565Z,4.67
2022-11-19T06:35:58.550Z,4.67
2022-11-19T06:40:58.546Z,4.76
2022-11-19T06:45:58.541Z,4.81
2022-11-19T06:50:58.550Z,4.87
2022-11-19T06:55:58.539Z,4.94
2022-11-19T07:00:58.525Z,4.99
2022-11-19T07:05:58.537Z,5.02
2022-11-19T07:10:58.529Z,5.09
2022-11-19T07:15:58.535Z,5.1
2022-11-19T07:20:58.527Z,5.18
2022-11-19T07:25:58.515Z,5.29
2022-11-19T07:30:58.501Z,5.39
2022-11-19T07:35:58.504Z,5.48
2022-11-19T07:40:58.497Z,5.62
2022-11-19T07:45:58.498Z,5.76
2022-11-19T07:50:58.503Z,5.91
2022-11-19T07:55:58.490Z,6.05
2022-11-19T08:00:58.505Z,6.24
2022-11-19T08:05:58.491Z,6.37
2022-11-19T08:10:58.485Z,6.51
2022-11-19T08:15:58.485Z,6.59
2022-11-19T08:20:58.481Z,6.71
2022-11-19T08:25:58.476Z,6.88
2022-11-19T08:30:58.478Z,7
2022-11-19T08:35:58.482Z,7.19
2022-11-19T08:40:58.478Z,7.2
2022-11-19T08:45:58.461Z,7
2022-11-19T08:50:58.442Z,6.91
2022-11-19T08:55:58.446Z,6.91
2022-11-19T09:00:58.539Z,7
2022-11-19T09:05:58.468Z,7.23
2022-11-19T09:10:58.432Z,7.45
2022-11-19T09:15:58.427Z,7.67
2022-11-19T09:20:58.420Z,7.82
2022-11-19T09:25:58.437Z,7.92
2022-11-19T09:30:58.413Z,8.11
2022-11-19T09:35:58.408Z,8.27
2022-11-19T09:40:58.420Z,8.39
2022-11-19T09:45:58.405Z,8.6
2022-11-19T09:50:58.412Z,8.67
2022-11-19T09:55:58.507Z,8.72
2022-11-19T10:00:58.393Z,8.65
2022-11-19T10:05:58.391Z,8.5
2022-11-19T10:10:58.386Z,8.39
2022-11-19T10:15:58.364Z,8.19
2022-11-19T10:20:58.371Z,8.12
2022-11-19T10:25:58.379Z,8.09
2022-11-19T10:30:58.378Z,8.16
2022-11-19T10:35:58.361Z,8.23
2022-11-19T10:40:58.355Z,8.35
2022-11-19T10:45:58.371Z,8.39
2022-11-19T10:50:58.344Z,8.48
2022-11-19T10:55:58.338Z,8.77
2022-11-19T11:00:58.392Z,8.81
2022-11-19T11:05:58.352Z,8.7
2022-11-19T11:10:58.337Z,8.79
2022-11-19T11:15:58.326Z,8.92
2022-11-19T11:20:58.318Z,9.03
2022-11-19T11:25:58.322Z,9.34
2022-11-19T11:30:58.330Z,9.56
2022-11-19T11:35:58.306Z,9.43
2022-11-19T11:41:20.024Z,9.17
2022-11-19T11:45:58.294Z,8.98
2022-11-19T11:50:58.291Z,8.79
2022-11-19T11:55:58.288Z,8.67
2022-11-19T12:05:58.361Z,9.03
2022-11-19T12:10:58.291Z,9.42
2022-11-19T12:15:58.277Z,9.78
2022-11-19T12:20:58.277Z,9.77
2022-11-19T12:25:58.277Z,9.62
2022-11-19T12:30:58.256Z,9.58
2022-11-19T12:35:58.275Z,9.61
2022-11-19T12:40:58.259Z,9.17
2022-11-19T12:45:58.247Z,8.93
2022-11-19T12:50:58.242Z,8.92
2022-11-19T12:55:58.241Z,8.85
2022-11-19T13:00:58.304Z,8.9
2022-11-19T13:05:58.260Z,8.98
2022-11-19T13:10:58.218Z,8.94
2022-11-19T13:15:58.216Z,8.94
2022-11-19T13:20:58.234Z,8.79
2022-11-19T13:25:58.205Z,8.56
2022-11-19T13:30:58.219Z,8.26
2022-11-19T13:35:58.212Z,7.99
2022-11-19T13:40:58.189Z,7.77
2022-11-19T13:45:58.195Z,7.61
2022-11-19T13:50:58.191Z,7.59
2022-11-19T13:55:58.183Z,7.71
2022-11-19T14:00:58.224Z,7.73
2022-11-19T14:05:58.163Z,7.55
2022-11-19T14:10:58.172Z,7.46
2022-11-19T14:15:58.172Z,7.47
2022-11-19T14:20:58.169Z,7.57
2022-11-19T14:25:58.150Z,7.73
2022-11-19T14:30:58.151Z,7.83
2022-11-19T14:35:58.144Z,7.92
2022-11-19T14:40:58.141Z,7.95
2022-11-19T14:45:58.141Z,8.29
2022-11-19T14:50:58.114Z,8.51
2022-11-19T14:55:58.113Z,8.23
2022-11-19T15:00:58.131Z,7.97
2022-11-19T15:05:58.119Z,7.75
2022-11-19T15:10:58.126Z,7.63
2022-11-19T15:15:58.109Z,7.53
2022-11-19T15:20:58.105Z,7.4
2022-11-19T15:25:58.111Z,7.31
2022-11-19T15:30:58.098Z,7.16
2022-11-19T15:35:58.089Z,6.95
2022-11-19T15:40:58.081Z,6.75
2022-11-19T15:45:58.092Z,6.67
2022-11-19T15:50:58.075Z,6.62
2022-11-19T15:55:58.063Z,6.61
2022-11-19T16:00:58.082Z,6.62
2022-11-19T16:05:58.073Z,6.62
2022-11-19T16:10:58.062Z,6.6
2022-11-19T16:15:58.062Z,6.62
2022-11-19T16:20:58.057Z,6.59
2022-11-19T16:25:58.056Z,6.51
2022-11-19T16:30:58.056Z,6.5
2022-11-19T16:35:58.052Z,6.51
2022-11-19T16:40:58.046Z,6.49
2022-11-19T16:45:58.037Z,6.46
2022-11-19T16:55:58.038Z,6.42
2022-11-19T17:00:58.039Z,6.43
2022-11-19T17:05:58.036Z,6.45
2022-11-19T17:10:58.030Z,6.45
2022-11-19T17:15:58.012Z,6.48
2022-11-19T17:25:58.040Z,6.56
2022-11-19T17:30:57.996Z,6.56
2022-11-19T17:35:57.990Z,6.52
2022-11-19T17:55:57.982Z,6.33
2022-11-19T18:15:57.969Z,6.11
2022-11-19T18:30:57.986Z,6.19
2022-11-19T18:35:57.948Z,6.24
2022-11-19T18:45:57.940Z,6.23
2022-11-19T18:50:57.945Z,6.15
2022-11-19T18:55:57.935Z,6.05
2022-11-19T19:00:57.967Z,6.01
2022-11-19T19:05:57.934Z,5.94
2022-11-19T19:10:57.955Z,5.93
2022-11-19T19:15:57.939Z,5.92
2022-11-19T19:20:57.922Z,5.92
2022-11-19T19:25:57.924Z,5.91
2022-11-19T19:30:57.921Z,5.9
2022-11-19T19:35:57.911Z,5.9
2022-11-19T19:40:57.917Z,5.88
2022-11-19T19:45:57.908Z,5.9
2022-11-19T19:50:57.904Z,5.87
2022-11-19T19:55:57.905Z,5.87
2022-11-19T20:00:57.897Z,5.84
2022-11-19T20:05:57.905Z,5.83
2022-11-19T20:10:57.903Z,5.79
2022-11-19T20:15:57.898Z,5.77
2022-11-19T20:20:57.929Z,5.77
2022-11-19T20:25:57.874Z,5.71
2022-11-19T20:30:57.867Z,5.67
2022-11-19T20:35:57.864Z,5.59
2022-11-19T20:40:57.868Z,5.58
2022-11-19T20:45:57.870Z,5.58
2022-11-19T20:50:57.867Z,5.58
2022-11-19T20:56:04.823Z,5.59
2022-11-19T21:00:57.865Z,5.58
2022-11-19T21:05:57.897Z,5.46
2022-11-19T21:10:57.863Z,5.43
2022-11-19T21:15:57.859Z,5.48
2022-11-19T21:20:57.846Z,5.44
2022-11-19T21:25:57.840Z,5.52
2022-11-19T21:30:57.839Z,5.48
2022-11-19T21:35:57.832Z,5.53
2022-11-19T21:40:57.820Z,5.57
2022-11-19T21:45:57.813Z,5.58
2022-11-19T21:50:57.822Z,5.58
2022-11-19T21:55:57.801Z,5.59
2022-11-19T22:00:57.839Z,5.62
2022-11-19T22:05:57.803Z,5.58
2022-11-19T22:10:57.810Z,5.58
2022-11-19T22:15:57.793Z,5.58
2022-11-19T22:20:57.778Z,5.58
2022-11-19T22:25:57.780Z,5.35
2022-11-19T22:30:57.791Z,5.09
2022-11-19T22:35:57.791Z,5.07
2022-11-19T22:40:57.781Z,5.04
2022-11-19T22:45:57.775Z,5.04
2022-11-19T22:50:57.761Z,5
2022-11-19T22:55:57.783Z,4.93
2022-11-19T23:12:00.359Z,4.89
2022-11-19T23:15:57.749Z,4.89
2022-11-19T23:20:57.744Z,4.97
2022-11-19T23:25:57.744Z,5.07
2022-11-19T23:30:57.748Z,5.1
2022-11-19T23:35:57.742Z,5.09
2022-11-19T23:40:57.730Z,5.12
2022-11-19T23:45:57.738Z,5.12
2022-11-19T23:50:57.725Z,5.12
2022-11-19T23:55:57.743Z,5.12
